Aviation Digital Data Service (ADDS)

Output produced by METARs form (0840 UTC 29 July 2014)
found at http://aviationweather.gov/adds/metars/
 
KIAD 290835Z 2909/3012 31006KT P6SM SCT090 
     FM300300 00000KT P6SM FEW050